Time;durP1;ratioP1;P1;durP2;ratioP2;P2;SDS_P1;SDS_P2;PMS_P1;PMS_P2;Temp;Humidity;BMP_temperature;BMP_pressure;BME280_temperature;BME280_humidity;BME280_pressure;Samples;Min_cycle;Max_cycle;Signal;HPM_P1;HPM_P2
2024/02/07 00:02:08;;;;;;;20.55;7.47;;;;;;;12.94;88.02;100843.03;5025047;28;20437;-64
2024/02/07 00:04:35;;;;;;;22.90;6.88;;;;;;;12.98;87.09;100841.25;5027317;28;20057;-65
2024/02/07 00:07:03;;;;;;;21.80;7.03;;;;;;;13.08;87.70;100833.47;5023514;28;20448;-64
2024/02/07 00:09:31;;;;;;;17.75;6.97;;;;;;;13.01;88.23;100833.13;5018729;28;20425;-63
2024/02/07 00:11:58;;;;;;;14.23;6.82;;;;;;;12.88;89.20;100839.66;5028548;28;20053;-63
2024/02/07 00:14:25;;;;;;;23.58;7.30;;;;;;;12.75;89.33;100842.56;5006796;28;20071;-62
2024/02/07 00:16:55;;;;;;;27.50;7.63;;;;;;;12.96;89.53;100832.47;5029336;28;20050;-62
2024/02/07 00:19:23;;;;;;;20.45;7.07;;;;;;;12.93;88.68;100825.66;5010128;28;20421;-63
2024/02/07 00:21:51;;;;;;;22.95;6.88;;;;;;;12.87;89.08;100838.00;5010941;28;20600;-64
2024/02/07 00:24:18;;;;;;;20.98;6.72;;;;;;;12.93;89.29;100820.13;5025487;28;20045;-63
2024/02/07 00:26:45;;;;;;;20.05;6.15;;;;;;;12.84;89.15;100833.16;5009333;28;20665;-63
2024/02/07 00:29:13;;;;;;;21.50;7.10;;;;;;;12.72;89.91;100819.16;5028099;28;20643;-63
2024/02/07 00:31:40;;;;;;;18.35;6.85;;;;;;;13.13;89.38;100815.91;5036263;28;20053;-63
2024/02/07 00:34:07;;;;;;;18.05;6.32;;;;;;;13.18;87.63;100815.75;5029191;28;20060;-63
2024/02/07 00:36:35;;;;;;;20.30;6.50;;;;;;;13.10;87.72;100803.56;5024025;28;20041;-65
2024/02/07 00:39:05;;;;;;;22.60;6.80;;;;;;;12.89;88.75;100798.97;5029731;28;20060;-61
2024/02/07 00:41:32;;;;;;;26.27;7.88;;;;;;;13.00;88.83;100792.81;5026075;28;20049;-60
2024/02/07 00:43:59;;;;;;;22.40;6.72;;;;;;;13.00;89.26;100795.56;5035680;28;20053;-60
2024/02/07 00:46:30;;;;;;;22.27;6.65;;;;;;;13.05;89.21;100789.91;5005554;28;20442;-60
2024/02/07 00:48:59;;;;;;;23.05;7.78;;;;;;;12.98;88.53;100795.09;5033344;28;20646;-61
2024/02/07 00:51:26;;;;;;;19.20;6.45;;;;;;;12.81;89.91;100792.34;5026076;28;20049;-61
2024/02/07 00:53:54;;;;;;;19.55;6.30;;;;;;;12.89;88.97;100790.69;5028136;28;20072;-61
2024/02/07 00:56:21;;;;;;;16.83;6.85;;;;;;;12.84;89.95;100788.09;5027789;28;20058;-61
2024/02/07 00:58:48;;;;;;;24.40;6.97;;;;;;;12.86;90.38;100775.59;5008716;28;20045;-62
2024/02/07 01:01:16;;;;;;;20.17;7.13;;;;;;;12.76;90.10;100781.44;5028193;28;20048;-59
2024/02/07 01:03:44;;;;;;;16.90;6.80;;;;;;;13.01;89.59;100769.53;5026078;28;20594;-60
2024/02/07 01:06:11;;;;;;;23.17;6.88;;;;;;;13.00;90.11;100759.63;5024587;28;20049;-60
2024/02/07 01:08:38;;;;;;;16.98;6.95;;;;;;;12.95;89.66;100770.88;5024492;28;20241;-60
2024/02/07 01:11:05;;;;;;;18.40;6.88;;;;;;;12.99;89.27;100757.97;5022795;28;20060;-59
2024/02/07 01:13:33;;;;;;;25.00;7.47;;;;;;;13.07;89.27;100762.72;5029563;28;20056;-60
2024/02/07 01:16:00;;;;;;;22.17;7.13;;;;;;;12.95;89.70;100759.81;5023683;28;20057;-59
2024/02/07 01:18:27;;;;;;;21.17;6.82;;;;;;;12.97;90.03;100751.19;5004635;28;20554;-60
2024/02/07 01:20:55;;;;;;;17.83;6.53;;;;;;;13.23;88.03;100747.22;5022157;28;20802;-61
2024/02/07 01:23:22;;;;;;;24.52;6.55;;;;;;;13.10;88.17;100745.47;5007465;28;20065;-60
2024/02/07 01:25:50;;;;;;;24.83;7.05;;;;;;;12.94;89.21;100747.09;5003153;28;20049;-60
2024/02/07 01:28:19;;;;;;;21.15;7.07;;;;;;;12.86;89.77;100747.94;5027825;28;20396;-58
2024/02/07 01:30:46;;;;;;;19.75;6.55;;;;;;;12.96;89.94;100739.28;5025774;28;20058;-60
2024/02/07 01:33:13;;;;;;;20.25;6.63;;;;;;;13.08;89.48;100745.00;5000364;28;20056;-62
2024/02/07 01:35:41;;;;;;;19.80;7.07;;;;;;;12.88;89.66;100742.09;5023702;28;20072;-60
2024/02/07 01:38:09;;;;;;;24.40;7.45;;;;;;;13.01;88.92;100730.81;5022650;28;20656;-60
2024/02/07 01:40:48;;;;;;;18.70;6.80;;;;;;;13.09;88.42;100732.78;5024463;28;20047;-60
2024/02/07 01:43:16;;;;;;;29.10;8.10;;;;;;;13.03;88.48;100723.03;5029831;28;20063;-59
2024/02/07 01:45:44;;;;;;;25.30;7.38;;;;;;;13.03;89.67;100713.94;5026835;28;20041;-60
2024/02/07 01:48:11;;;;;;;19.35;7.30;;;;;;;12.75;89.83;100716.25;5029490;28;20044;-61
2024/02/07 01:50:40;;;;;;;20.73;6.57;;;;;;;12.91;90.11;100709.06;5025851;28;20052;-61
2024/02/07 01:53:09;;;;;;;17.55;6.63;;;;;;;13.05;90.10;100698.66;5027539;28;20049;-60
2024/02/07 01:55:38;;;;;;;18.75;6.55;;;;;;;13.02;89.60;100701.25;5028719;28;20056;-60
2024/02/07 01:58:05;;;;;;;20.67;7.03;;;;;;;13.00;89.41;100704.31;5027215;28;20050;-60
2024/02/07 02:00:33;;;;;;;21.58;6.68;;;;;;;13.10;88.96;100717.00;5031570;28;20049;-62
2024/02/07 02:03:01;;;;;;;23.20;7.18;;;;;;;13.00;89.04;100714.56;4987553;28;20050;-60
2024/02/07 02:05:28;;;;;;;19.60;6.10;;;;;;;13.11;89.44;100700.06;5029081;28;20049;-60
2024/02/07 02:07:57;;;;;;;15.55;6.50;;;;;;;13.08;89.02;100705.44;5008201;28;20047;-61
2024/02/07 02:10:24;;;;;;;16.08;6.65;;;;;;;13.38;88.11;100698.84;5006916;28;20060;-60
2024/02/07 02:12:52;;;;;;;21.23;6.40;;;;;;;13.16;87.97;100705.41;5010589;28;20057;-61
2024/02/07 02:15:19;;;;;;;17.95;6.22;;;;;;;13.14;87.88;100693.09;5025670;28;20738;-61
2024/02/07 02:17:46;;;;;;;23.95;7.38;;;;;;;13.15;88.50;100683.63;5024832;28;20092;-60
2024/02/07 02:20:14;;;;;;;17.60;5.90;;;;;;;13.12;87.51;100689.84;5007928;28;20053;-60
2024/02/07 02:23:07;;;;;;;15.90;6.47;;;;;;;13.08;89.06;100688.84;5037095;28;20049;-60
2024/02/07 02:25:56;;;;;;;19.75;6.75;;;;;;;13.20;88.00;100680.69;5026517;28;20050;-60
2024/02/07 02:28:32;;;;;;;20.87;7.67;;;;;;;13.00;88.58;100681.38;5025875;28;21080;-60
2024/02/07 02:31:01;;;;;;;20.92;7.53;;;;;;;13.14;89.11;100682.84;5034149;28;20308;-60
2024/02/07 02:33:30;;;;;;;19.40;6.25;;;;;;;13.02;89.22;100671.63;5009090;28;20056;-61
2024/02/07 02:35:59;;;;;;;18.60;6.72;;;;;;;12.96;89.12;100672.13;5028935;28;20045;-61
2024/02/07 02:38:27;;;;;;;17.23;5.93;;;;;;;13.06;90.14;100669.03;5036213;28;20060;-61
2024/02/07 02:40:54;;;;;;;23.15;6.70;;;;;;;13.29;87.98;100667.63;5019930;28;20068;-62
2024/02/07 02:43:22;;;;;;;19.20;7.28;;;;;;;13.11;88.54;100666.09;5026704;28;20053;-61
2024/02/07 02:45:51;;;;;;;23.55;6.85;;;;;;;12.99;89.46;100668.72;5027957;28;20540;-61
2024/02/07 02:48:19;;;;;;;21.00;6.45;;;;;;;13.24;88.72;100654.81;5008126;28;20045;-60
2024/02/07 02:50:47;;;;;;;16.27;6.40;;;;;;;13.16;88.95;100652.09;5026836;28;20049;-60
2024/02/07 02:53:17;;;;;;;20.15;6.85;;;;;;;13.03;88.37;100655.88;5026853;28;20537;-61
2024/02/07 02:55:45;;;;;;;;;;;;;;;13.05;88.24;100654.41;5022210;28;20057;-61
2024/02/07 02:58:12;;;;;;;18.50;6.53;;;;;;;12.95;88.79;100657.50;5015894;28;20481;-61
2024/02/07 03:00:54;;;;;;;25.58;6.65;;;;;;;12.97;88.57;100655.19;5032869;28;20041;-61
2024/02/07 03:03:21;;;;;;;22.85;7.03;;;;;;;13.11;89.17;100647.53;5030256;28;20052;-60
2024/02/07 03:05:58;;;;;;;28.40;7.07;;;;;;;13.11;88.30;100636.47;5032631;28;20045;-61
2024/02/07 03:08:39;;;;;;;25.13;6.45;;;;;;;13.04;87.85;100629.84;5030509;28;20056;-60
2024/02/07 03:11:08;;;;;;;25.42;7.25;;;;;;;13.11;88.87;100632.91;5027605;28;20254;-60
2024/02/07 03:13:37;;;;;;;16.60;6.10;;;;;;;13.29;88.24;100629.72;5034013;28;20053;-61
2024/02/07 03:16:06;;;;;;;18.98;6.60;;;;;;;13.33;87.69;100622.38;5019986;28;20068;-61
2024/02/07 03:18:34;;;;;;;16.02;6.47;;;;;;;13.09;88.27;100608.31;5035272;28;20049;-60
2024/02/07 03:21:05;;;;;;;17.38;6.68;;;;;;;13.47;86.35;100619.38;5013266;28;20057;-61
2024/02/07 03:23:32;;;;;;;;;;;;;;;13.49;86.36;100614.31;5037452;28;20048;-60
2024/02/07 03:26:04;;;;;;;19.65;6.90;;;;;;;13.15;87.57;100607.00;5034991;28;19936;-60
2024/02/07 03:28:31;;;;;;;17.35;6.55;;;;;;;13.06;88.14;100605.41;5036826;28;20049;-60
2024/02/07 03:30:59;;;;;;;20.77;6.97;;;;;;;13.06;88.57;100608.19;5029094;28;20057;-60
2024/02/07 03:33:28;;;;;;;19.52;6.97;;;;;;;13.17;87.83;100599.19;5032006;28;20054;-60
2024/02/07 03:35:56;;;;;;;20.73;6.65;;;;;;;13.24;88.54;100584.84;5032356;28;20072;-61
2024/02/07 03:38:24;;;;;;;17.38;6.53;;;;;;;13.20;88.30;100587.47;5029439;28;20049;-61
2024/02/07 03:40:51;;;;;;;18.08;6.22;;;;;;;13.23;88.48;100569.41;5008679;28;20061;-61
2024/02/07 03:43:19;;;;;;;17.67;6.65;;;;;;;13.45;88.53;100564.38;5039382;28;20057;-61
2024/02/07 03:45:47;;;;;;;22.80;7.07;;;;;;;13.48;87.12;100571.16;5039838;28;20051;-60
2024/02/07 03:48:14;;;;;;;21.17;6.85;;;;;;;13.37;88.55;100559.69;5039780;28;20176;-61
2024/02/07 03:50:42;;;;;;;23.52;6.90;;;;;;;13.24;89.82;100560.75;5030234;28;20056;-62
2024/02/07 03:53:10;;;;;;;21.40;7.07;;;;;;;13.19;89.59;100547.13;5031571;28;20049;-60
2024/02/07 03:55:37;;;;;;;18.02;6.60;;;;;;;13.13;89.33;100547.63;5012587;28;20056;-60
2024/02/07 03:58:07;;;;;;;18.95;7.03;;;;;;;13.04;89.95;100555.97;5013899;28;20623;-60
2024/02/07 04:00:35;;;;;;;20.92;7.10;;;;;;;13.11;89.18;100547.97;5034084;28;20045;-60
2024/02/07 04:03:02;;;;;;;22.05;6.70;;;;;;;13.24;89.79;100543.34;5034742;28;20075;-60
2024/02/07 04:05:30;;;;;;;20.05;7.22;;;;;;;13.37;88.88;100545.06;5007806;28;20056;-61
2024/02/07 04:07:57;;;;;;;16.50;6.07;;;;;;;13.24;89.03;100543.34;5027845;28;20140;-59
2024/02/07 04:10:25;;;;;;;23.15;6.85;;;;;;;13.14;88.88;100543.75;5029180;28;20041;-61
2024/02/07 05:16:16;;;;;;;22.30;7.72;;;;;;;12.96;95.71;100482.16;5033091;28;20052;-61
2024/02/07 05:18:44;;;;;;;19.67;7.45;;;;;;;13.14;95.10;100480.94;5030238;28;20906;-61
2024/02/07 05:21:12;;;;;;;22.42;7.57;;;;;;;13.11;95.51;100480.81;5029146;28;20054;-60
2024/02/07 05:23:40;;;;;;;17.33;7.28;;;;;;;12.93;96.40;100473.75;5009023;28;20050;-59
2024/02/07 05:26:11;;;;;;;23.45;7.72;;;;;;;12.77;97.78;100454.16;5023390;28;20050;-61
2024/02/07 05:28:41;;;;;;;17.52;7.38;;;;;;;12.93;98.06;100465.44;5009490;28;20064;-60
2024/02/07 05:31:09;;;;;;;17.23;7.45;;;;;;;12.80;98.00;100472.00;5019497;28;20057;-60
2024/02/07 05:33:41;;;;;;;26.85;8.07;;;;;;;13.03;96.81;100471.44;5014164;28;20053;-59
2024/02/07 05:36:09;;;;;;;18.83;8.02;;;;;;;13.22;96.71;100477.31;5039404;28;20056;-61
2024/02/07 05:38:37;;;;;;;20.75;7.43;;;;;;;13.24;96.74;100472.25;5049084;28;20064;-60
2024/02/07 05:41:04;;;;;;;21.33;8.23;;;;;;;13.00;97.34;100472.06;5049177;28;20052;-61
2024/02/07 05:43:32;;;;;;;21.33;7.97;;;;;;;13.23;96.31;100467.84;5048973;28;20056;-62
2024/02/07 05:45:59;;;;;;;21.70;7.93;;;;;;;13.00;96.94;100471.25;5012480;28;20053;-60
2024/02/07 05:48:27;;;;;;;21.70;7.50;;;;;;;12.96;97.17;100471.13;5029060;28;20064;-60
2024/02/07 05:50:54;;;;;;;26.58;7.70;;;;;;;12.99;97.12;100464.91;5028479;28;20056;-61
2024/02/07 05:53:22;;;;;;;20.35;7.80;;;;;;;13.00;97.44;100455.47;5029254;28;20645;-61
2024/02/07 05:55:49;;;;;;;19.25;7.82;;;;;;;13.01;98.49;100456.28;5041932;28;20053;-61
2024/02/07 05:58:17;;;;;;;17.55;7.60;;;;;;;13.02;99.05;100444.13;5023205;28;20049;-60
2024/02/07 06:00:48;;;;;;;23.80;7.50;;;;;;;12.88;98.59;100446.28;5043373;28;20053;-61
2024/02/07 06:03:15;;;;;;;18.63;7.20;;;;;;;13.08;98.79;100442.75;5014598;28;20049;-62
2024/02/07 06:05:43;;;;;;;14.35;7.30;;;;;;;12.92;98.80;100442.50;5062198;28;20064;-62
2024/02/07 06:08:10;;;;;;;22.52;7.78;;;;;;;12.87;99.43;100441.88;5042364;28;20057;-61
2024/02/07 06:10:40;;;;;;;21.98;8.23;;;;;;;13.00;99.27;100449.13;5040922;28;20057;-61
2024/02/07 06:13:08;;;;;;;15.10;7.53;;;;;;;13.05;98.30;100438.72;5008814;28;20065;-61
2024/02/07 06:15:41;;;;;;;15.45;7.82;;;;;;;12.87;99.67;100433.59;5016659;28;20057;-63
2024/02/07 06:18:25;;;;;;;18.48;7.18;;;;;;;12.71;100.00;100438.13;5028885;28;20041;-61
2024/02/07 06:20:53;;;;;;;19.75;8.05;;;;;;;12.83;100.00;100438.19;5042544;28;20045;-61
2024/02/07 06:23:20;;;;;;;26.88;8.82;;;;;;;12.85;100.00;100428.41;5027804;28;20041;-61
2024/02/07 06:25:48;;;;;;;21.75;8.35;;;;;;;12.82;100.00;100428.28;5029941;28;20053;-62
2024/02/07 06:28:16;;;;;;;21.02;8.02;;;;;;;12.71;100.00;100425.09;5009791;28;20053;-61
2024/02/07 06:30:44;;;;;;;24.35;8.63;;;;;;;12.88;100.00;100425.00;5008606;28;20872;-63
2024/02/07 06:33:11;;;;;;;28.48;8.00;;;;;;;12.86;100.00;100420.94;5011095;28;20057;-61
2024/02/07 06:35:39;;;;;;;22.33;8.73;;;;;;;12.76;100.00;100405.53;5029871;28;20067;-61
2024/02/07 06:38:06;;;;;;;19.15;8.32;;;;;;;12.60;100.00;100396.25;5040802;28;20389;-61
2024/02/07 06:40:34;;;;;;;20.23;7.55;;;;;;;12.47;100.00;100389.00;5030666;28;20049;-61
2024/02/07 06:43:03;;;;;;;24.17;8.70;;;;;;;12.62;100.00;100385.66;5043963;28;20049;-61
2024/02/07 06:45:31;;;;;;;22.00;8.30;;;;;;;12.51;100.00;100391.91;5014795;28;20052;-61
2024/02/07 06:48:00;;;;;;;22.30;8.65;;;;;;;12.86;100.00;100379.47;5014051;28;20056;-60
2024/02/07 06:50:28;;;;;;;24.10;8.30;;;;;;;12.86;100.00;100385.00;5029474;28;20053;-61
2024/02/07 06:52:55;;;;;;;22.58;8.75;;;;;;;12.71;100.00;100388.38;5028664;28;20057;-62
2024/02/07 06:55:23;;;;;;;15.45;7.82;;;;;;;12.85;100.00;100383.41;5039550;28;20063;-61
2024/02/07 06:57:51;;;;;;;20.15;8.73;;;;;;;12.92;100.00;100381.69;5023534;28;20042;-62
2024/02/07 07:00:18;;;;;;;21.75;8.25;;;;;;;12.77;100.00;100384.25;5028145;28;20057;-62
2024/02/07 07:02:46;;;;;;;21.70;8.93;;;;;;;12.99;100.00;100378.41;5029799;28;20045;-61
2024/02/07 07:05:15;;;;;;;23.83;8.93;;;;;;;12.96;100.00;100390.13;5011119;28;20595;-60
2024/02/07 07:07:42;;;;;;;20.15;8.70;;;;;;;13.09;99.56;100378.03;5024911;28;20061;-61
2024/02/07 07:10:09;;;;;;;25.83;8.48;;;;;;;12.95;99.79;100371.94;4993283;28;20060;-60
2024/02/07 07:12:37;;;;;;;23.60;8.07;;;;;;;13.00;99.47;100375.31;5027406;28;20523;-61
2024/02/07 07:15:17;;;;;;;24.10;8.27;;;;;;;12.96;99.70;100377.13;5041444;28;20073;-62
2024/02/07 07:17:59;;;;;;;26.98;7.93;;;;;;;12.87;100.00;100357.03;5026515;28;20058;-61
2024/02/07 07:20:30;;;;;;;18.65;7.70;;;;;;;12.97;100.00;100355.81;5028252;28;20128;-62
2024/02/07 07:22:58;;;;;;;20.85;8.18;;;;;;;13.08;99.44;100355.09;5027154;28;20057;-60
2024/02/07 07:25:41;;;;;;;20.25;8.70;;;;;;;12.98;99.14;100347.19;5042637;28;20053;-62
2024/02/07 07:28:09;;;;;;;24.30;8.63;;;;;;;12.88;98.69;100358.66;5009399;28;20057;-62
2024/02/07 07:30:36;;;;;;;20.63;8.73;;;;;;;12.97;99.75;100353.06;5026747;28;20060;-62
2024/02/07 07:33:05;;;;;;;23.33;8.00;;;;;;;12.97;99.20;100345.53;5026996;28;20049;-61
2024/02/07 07:35:32;;;;;;;22.30;8.05;;;;;;;12.78;99.67;100342.44;5026378;28;20069;-60
2024/02/07 07:38:04;;;;;;;21.90;8.88;;;;;;;12.80;100.00;100347.63;5035676;28;20053;-61
2024/02/07 07:40:31;;;;;;;20.40;8.10;;;;;;;12.78;100.00;100350.75;5028432;28;20056;-62
2024/02/07 07:42:59;;;;;;;26.02;9.15;;;;;;;12.82;100.00;100354.47;5036308;28;20119;-61
2024/02/07 07:45:26;;;;;;;27.25;9.55;;;;;;;12.79;100.00;100351.56;5040490;28;20404;-60
2024/02/07 07:47:55;;;;;;;21.52;8.48;;;;;;;13.00;100.00;100355.13;5011146;28;20062;-62
2024/02/07 07:50:23;;;;;;;17.08;7.63;;;;;;;13.58;96.85;100343.88;5051270;28;20037;-62
2024/02/07 07:52:51;;;;;;;19.45;7.25;;;;;;;13.70;94.10;100354.97;5045132;28;20057;-61
2024/02/07 07:55:18;;;;;;;22.60;7.78;;;;;;;13.52;94.68;100356.28;5036320;28;20049;-61
2024/02/07 07:57:46;;;;;;;24.00;8.45;;;;;;;13.66;94.24;100351.25;5032230;28;20057;-61
2024/02/07 08:00:13;;;;;;;23.38;7.95;;;;;;;14.04;97.78;100356.50;5027713;28;20048;-60
2024/02/07 08:02:40;;;;;;;19.17;7.78;;;;;;;13.65;93.13;100341.31;5021031;28;20050;-61
2024/02/07 08:05:08;;;;;;;26.27;8.60;;;;;;;13.54;92.88;100345.69;5015551;28;20041;-61
2024/02/07 08:07:35;;;;;;;23.58;8.40;;;;;;;13.35;93.22;100337.91;5026351;28;20385;-60
2024/02/07 08:10:03;;;;;;;21.90;8.15;;;;;;;13.30;94.13;100356.69;5033035;28;20052;-63
2024/02/07 08:12:30;;;;;;;21.30;8.68;;;;;;;13.29;94.05;100353.09;5035644;28;20053;-60
2024/02/07 08:14:58;;;;;;;28.92;8.15;;;;;;;13.30;94.52;100351.16;5029056;28;20049;-60
2024/02/07 08:17:25;;;;;;;24.50;9.15;;;;;;;13.17;95.52;100360.53;5037356;28;20049;-59
2024/02/07 08:19:55;;;;;;;22.02;8.27;;;;;;;13.13;94.63;100354.88;5042267;28;20500;-60
2024/02/07 08:22:22;;;;;;;22.02;8.60;;;;;;;13.33;93.73;100353.22;5033536;28;20057;-61
2024/02/07 08:24:52;;;;;;;25.67;8.38;;;;;;;13.29;93.84;100353.09;5046850;28;20121;-60
2024/02/07 08:27:19;;;;;;;23.77;8.68;;;;;;;13.29;94.09;100361.41;5046893;28;20053;-56
2024/02/07 08:29:46;;;;;;;25.08;8.85;;;;;;;13.37;94.41;100354.97;5038657;28;20045;-61
2024/02/07 08:32:14;;;;;;;26.75;9.15;;;;;;;13.29;93.46;100357.81;5038799;28;20057;-63
2024/02/07 08:34:42;;;;;;;20.02;8.55;;;;;;;13.31;94.24;100341.69;5006913;28;20048;-60
2024/02/07 08:37:10;;;;;;;21.65;8.65;;;;;;;13.36;93.09;100339.53;5033984;28;20061;-60
2024/02/07 08:39:37;;;;;;;26.08;8.70;;;;;;;13.13;93.99;100349.34;5020002;28;20065;-60
2024/02/07 08:42:05;;;;;;;31.40;8.50;;;;;;;13.29;92.33;100352.28;5015212;28;20041;-61
2024/02/07 08:44:33;;;;;;;20.75;7.97;;;;;;;13.33;92.53;100331.91;5048892;28;20532;-60
2024/02/07 08:47:02;;;;;;;17.48;8.25;;;;;;;13.33;92.65;100331.91;5042859;28;20065;-60
2024/02/07 08:49:29;;;;;;;28.23;8.68;;;;;;;13.24;92.77;100327.59;5046992;28;20053;-61
2024/02/07 08:51:57;;;;;;;23.70;8.20;;;;;;;13.40;92.34;100326.63;5017057;28;20066;-61
2024/02/07 08:54:24;;;;;;;24.33;8.63;;;;;;;13.23;93.51;100337.84;5034911;28;20048;-60
2024/02/07 08:56:51;;;;;;;22.95;9.88;;;;;;;13.37;92.64;100332.03;5035732;28;20041;-60
2024/02/07 08:59:18;;;;;;;24.13;9.73;;;;;;;13.39;92.63;100326.94;5031587;28;20061;-60
2024/02/07 09:01:45;;;;;;;24.85;9.25;;;;;;;13.22;92.29;100316.06;5025846;28;20041;-60
2024/02/07 09:04:13;;;;;;;24.58;9.07;;;;;;;13.13;93.43;100320.88;5017143;28;20050;-60
2024/02/07 09:06:41;;;;;;;27.65;9.52;;;;;;;13.42;92.13;100309.69;5033577;28;20049;-60
2024/02/07 09:09:08;;;;;;;24.90;9.13;;;;;;;13.27;91.88;100307.56;5031965;28;20477;-60
2024/02/07 09:11:35;;;;;;;23.80;9.65;;;;;;;13.09;93.36;100319.97;5031070;28;20052;-61
2024/02/07 09:14:02;;;;;;;27.90;9.43;;;;;;;13.19;93.92;100305.69;5015597;28;20121;-61
2024/02/07 09:16:29;;;;;;;24.65;9.85;;;;;;;13.25;94.39;100307.91;5011655;28;20053;-61
2024/02/07 09:18:57;;;;;;;20.02;8.85;;;;;;;13.39;94.02;100299.28;5023122;28;20064;-60
2024/02/07 09:21:27;;;;;;;27.33;9.90;;;;;;;13.34;93.90;100297.56;5037970;28;20087;-61
2024/02/07 09:23:56;;;;;;;18.83;8.77;;;;;;;13.23;93.59;100299.13;5031740;28;20144;-60
2024/02/07 09:26:28;;;;;;;18.85;9.30;;;;;;;13.28;93.83;100311.97;5028778;28;20065;-60
2024/02/07 09:28:58;;;;;;;23.88;9.45;;;;;;;13.10;95.19;100303.03;5034061;28;20045;-60
2024/02/07 09:31:25;;;;;;;21.30;10.13;;;;;;;13.39;94.85;100308.41;5013432;28;20033;-61
2024/02/07 09:33:52;;;;;;;19.02;9.95;;;;;;;13.16;95.15;100309.94;5053476;28;20069;-61
2024/02/07 09:36:20;;;;;;;24.13;8.90;;;;;;;13.30;94.83;100313.22;5033616;28;20053;-60
2024/02/07 09:38:47;;;;;;;25.52;9.32;;;;;;;13.39;94.28;100304.81;5031696;28;20071;-61
2024/02/07 09:41:15;;;;;;;19.52;9.40;;;;;;;13.34;94.75;100297.56;5026142;28;20034;-60
2024/02/07 09:43:45;;;;;;;17.17;9.13;;;;;;;13.27;95.83;100308.38;5030138;28;20060;-60
2024/02/07 09:46:12;;;;;;;21.48;9.25;;;;;;;13.08;95.91;100293.44;5029788;28;20053;-60
2024/02/07 09:48:40;;;;;;;21.20;8.95;;;;;;;13.18;96.37;100301.34;5045185;28;20053;-60
2024/02/07 09:51:14;;;;;;;24.23;9.43;;;;;;;13.00;97.08;100303.41;5029899;28;20496;-59
2024/02/07 09:53:42;;;;;;;20.23;9.60;;;;;;;13.02;97.24;100303.09;5032726;28;20053;-60
2024/02/07 09:56:10;;;;;;;19.02;9.13;;;;;;;13.23;96.51;100296.38;5026860;28;20038;-58
2024/02/07 09:58:47;;;;;;;27.40;9.52;;;;;;;13.16;96.86;100293.34;5029979;28;20045;-59
2024/02/07 10:01:15;;;;;;;21.25;8.85;;;;;;;13.04;98.24;100293.31;5031105;28;20045;-58
2024/02/07 10:03:46;;;;;;;21.00;9.13;;;;;;;12.94;98.42;100281.81;5030412;28;20048;-62
2024/02/07 10:06:15;;;;;;;17.15;8.73;;;;;;;13.09;98.65;100284.78;5016372;28;20056;-61
2024/02/07 10:08:48;;;;;;;20.20;8.65;;;;;;;13.01;98.96;100287.63;5034011;28;20512;-61
2024/02/07 10:11:15;;;;;;;22.25;9.18;;;;;;;13.16;98.50;100285.06;5031836;28;20049;-60
2024/02/07 10:13:43;;;;;;;20.13;9.35;;;;;;;13.16;98.38;100287.03;5017791;28;20052;-61
2024/02/07 10:16:10;;;;;;;20.05;8.77;;;;;;;13.33;97.74;100281.31;5032979;28;20049;-60
2024/02/07 10:18:38;;;;;;;17.50;9.02;;;;;;;13.28;98.24;100284.31;5011273;28;20045;-62
2024/02/07 10:21:05;;;;;;;19.30;8.55;;;;;;;13.23;97.92;100282.53;5029025;28;20489;-61
2024/02/07 10:23:32;;;;;;;19.02;8.57;;;;;;;13.13;98.41;100276.63;5010379;28;20060;-60
2024/02/07 10:26:00;;;;;;;19.02;9.13;;;;;;;13.22;98.38;100278.16;5030015;28;20536;-62
2024/02/07 10:28:27;;;;;;;16.65;7.63;;;;;;;13.29;98.67;100275.66;5033042;28;20060;-61
2024/02/07 10:31:02;;;;;;;19.48;8.73;;;;;;;13.34;97.99;100271.84;5045465;28;20057;-64
2024/02/07 10:33:39;;;;;;;19.65;8.60;;;;;;;13.26;98.21;100272.75;5031592;28;20060;-60
2024/02/07 10:36:10;;;;;;;19.10;8.50;;;;;;;13.22;98.87;100266.28;5013155;28;20053;-60
2024/02/07 10:38:40;;;;;;;21.90;8.85;;;;;;;13.32;98.83;100258.38;5004262;28;20053;-61
2024/02/07 10:41:07;;;;;;;18.52;7.65;;;;;;;13.42;98.45;100268.19;5021987;28;20515;-61
2024/02/07 10:43:36;;;;;;;13.80;7.05;;;;;;;13.49;96.38;100258.16;5037885;28;20045;-61
2024/02/07 10:46:08;;;;;;;16.67;8.15;;;;;;;13.50;95.60;100256.22;5025863;28;20061;-62
2024/02/07 10:48:38;;;;;;;16.30;7.65;;;;;;;13.51;96.20;100255.88;5034841;28;20111;-60
2024/02/07 10:51:06;;;;;;;16.05;7.47;;;;;;;13.24;97.94;100245.44;5027687;28;20049;-61
2024/02/07 10:53:33;;;;;;;14.68;7.18;;;;;;;13.12;97.77;100247.38;5021791;28;20057;-60
2024/02/07 10:56:03;;;;;;;17.33;7.15;;;;;;;13.19;98.19;100237.38;5021109;28;20061;-61
2024/02/07 10:58:32;;;;;;;;;;;;;;;13.30;97.65;100234.97;5020216;28;20049;-61
2024/02/07 11:01:00;;;;;;;15.35;7.10;;;;;;;13.43;97.56;100236.59;5044161;28;20000;-60
2024/02/07 11:03:29;;;;;;;17.10;7.28;;;;;;;13.29;97.59;100233.34;5041323;28;20053;-59
2024/02/07 11:06:00;;;;;;;19.17;7.47;;;;;;;13.45;96.95;100226.00;5033955;28;20045;-63
2024/02/07 11:08:28;;;;;;;15.68;6.70;;;;;;;13.53;95.60;100225.88;5021652;28;20049;-60
2024/02/07 11:10:56;;;;;;;10.88;6.25;;;;;;;13.57;95.79;100221.28;5042014;28;20053;-61
2024/02/07 11:13:25;;;;;;;11.85;6.00;;;;;;;13.89;93.31;100205.72;5040420;28;20042;-61
2024/02/07 11:15:53;;;;;;;14.32;7.65;;;;;;;13.87;93.70;100219.09;5046366;28;20050;-61
2024/02/07 11:18:20;;;;;;;16.05;7.82;;;;;;;13.64;94.85;100217.94;5043245;28;20052;-61
2024/02/07 11:20:48;;;;;;;18.92;10.93;;;;;;;13.40;96.86;100212.41;5036545;28;20049;-61
2024/02/07 11:23:27;;;;;;;27.35;12.00;;;;;;;13.55;96.30;100197.88;5033881;28;20064;-60
2024/02/07 11:25:54;;;;;;;14.95;7.97;;;;;;;13.38;96.89;100190.63;5020395;28;20441;-60
2024/02/07 11:28:22;;;;;;;18.42;10.98;;;;;;;13.28;97.94;100193.03;5034408;28;20052;-61
2024/02/07 11:30:53;;;;;;;28.30;16.77;;;;;;;13.46;97.65;100186.09;5033539;28;20053;-59
2024/02/07 11:33:20;;;;;;;;;;;;;;;13.53;96.94;100176.09;5052014;28;20050;-62
2024/02/07 11:35:47;;;;;;;20.75;10.38;;;;;;;13.95;95.80;100171.09;5041969;28;19920;-61
2024/02/07 11:38:17;;;;;;;23.25;12.70;;;;;;;13.68;95.33;100176.53;5039519;28;20045;-60
2024/02/07 11:40:45;;;;;;;17.85;10.07;;;;;;;13.74;95.40;100164.09;5019238;28;20488;-62
2024/02/07 11:43:42;;;;;;;20.20;10.20;;;;;;;13.68;95.99;100163.53;5023721;28;20053;-62
2024/02/07 11:46:09;;;;;;;18.05;9.10;;;;;;;13.74;95.85;100151.03;5057744;28;20064;-59
2024/02/07 11:48:41;;;;;;;19.55;10.35;;;;;;;13.87;94.83;100152.66;5019485;28;20053;-62
2024/02/07 11:51:09;;;;;;;23.95;13.35;;;;;;;13.74;96.32;100130.88;5016245;28;20061;-57
2024/02/07 11:53:41;;;;;;;20.10;11.73;;;;;;;13.75;96.06;100147.13;4996951;28;20146;-60
2024/02/07 11:56:10;;;;;;;18.48;10.48;;;;;;;13.93;95.10;100147.69;5028283;28;20061;-62
2024/02/07 11:58:39;;;;;;;50.25;16.80;;;;;;;14.02;94.22;100138.06;5015053;28;20053;-60
2024/02/07 12:01:10;;;;;;;41.40;16.25;;;;;;;13.89;96.25;100136.50;5034112;28;20060;-60
2024/02/07 12:03:38;;;;;;;29.88;16.73;;;;;;;13.77;97.04;100142.06;5014376;28;20065;-62
2024/02/07 12:06:10;;;;;;;23.88;15.77;;;;;;;13.92;97.62;100137.75;5027571;28;20065;-61
2024/02/07 12:08:38;;;;;;;24.40;15.75;;;;;;;13.73;98.93;100140.31;5034969;28;20517;-61
2024/02/07 12:11:08;;;;;;;15.77;9.70;;;;;;;14.05;97.48;100115.22;5045047;28;20061;-60
2024/02/07 12:13:38;;;;;;;23.30;13.70;;;;;;;13.89;97.10;100119.88;5031463;28;20045;-62
2024/02/07 12:16:07;;;;;;;23.75;13.85;;;;;;;13.88;96.91;100117.47;5032176;28;20060;-59
2024/02/07 12:18:35;;;;;;;16.45;9.85;;;;;;;13.75;97.99;100122.22;5033367;28;20049;-61
2024/02/07 12:21:03;;;;;;;36.15;22.48;;;;;;;13.72;97.34;100111.84;5032649;28;20046;-59
2024/02/07 12:23:32;;;;;;;29.02;16.05;;;;;;;13.86;96.94;100103.97;5045915;28;20049;-60
2024/02/07 12:26:01;;;;;;;22.67;14.23;;;;;;;13.78;97.40;100099.38;5033980;28;20589;-62
2024/02/07 12:28:28;;;;;;;14.77;8.10;;;;;;;13.73;98.27;100102.38;5040908;28;20583;-61